Time;durP1;ratioP1;P1;durP2;ratioP2;P2;SDS_P1;SDS_P2;PMS_P1;PMS_P2;Temp;Humidity;BMP_temperature;BMP_pressure;BME280_temperature;BME280_humidity;BME280_pressure;Samples;Min_cycle;Max_cycle;Signal;HPM_P1;HPM_P2
2021/08/11 00:02:14;;;;;;;3.72;2.28;;;;;;;23.54;50.57;101572.38;5013263;28;20065;-58
2021/08/11 00:04:39;;;;;;;2.97;2.13;;;;;;;23.54;51.57;101576.97;5013715;28;20121;-57
2021/08/11 00:07:05;;;;;;;1.95;1.75;;;;;;;23.53;50.77;101570.69;5011948;28;20026;-58
2021/08/11 00:09:30;;;;;;;5.28;2.22;;;;;;;23.54;50.65;101575.09;5012478;28;20408;-58
2021/08/11 00:11:57;;;;;;;5.20;1.90;;;;;;;23.52;51.03;101563.53;5012517;28;20022;-59
2021/08/11 00:14:23;;;;;;;5.95;2.13;;;;;;;23.47;51.30;101563.25;5013943;28;20026;-58
2021/08/11 00:16:48;;;;;;;2.55;1.73;;;;;;;23.48;51.62;101558.66;5013276;28;20029;-58
2021/08/11 00:19:13;;;;;;;2.40;1.80;;;;;;;23.47;51.61;101565.16;5013249;28;20105;-58
2021/08/11 00:21:39;;;;;;;3.55;1.90;;;;;;;23.45;51.61;101570.78;5014506;28;20056;-59
2021/08/11 00:24:04;;;;;;;3.78;2.03;;;;;;;23.44;51.14;101566.38;5016946;28;20081;-58
2021/08/11 00:26:30;;;;;;;2.50;1.65;;;;;;;23.42;50.76;101562.16;5016476;28;20058;-59
2021/08/11 00:28:55;;;;;;;1.48;1.05;;;;;;;23.41;51.31;101560.44;5017037;28;20107;-58
2021/08/11 00:31:21;;;;;;;1.17;0.80;;;;;;;23.36;50.86;101563.75;5015250;28;20417;-58
2021/08/11 00:33:46;;;;;;;1.20;0.93;;;;;;;23.37;50.63;101561.84;5015335;28;20030;-59
2021/08/11 00:36:12;;;;;;;3.20;0.88;;;;;;;23.35;51.59;101566.66;5017009;28;20064;-59
2021/08/11 00:38:37;;;;;;;1.58;1.48;;;;;;;23.33;50.74;101557.81;5016492;28;20032;-59
2021/08/11 00:41:03;;;;;;;1.83;1.50;;;;;;;23.31;51.17;101554.44;5016620;28;20025;-58
2021/08/11 00:43:29;;;;;;;6.47;3.17;;;;;;;23.33;50.96;101558.66;5015240;28;20026;-58
2021/08/11 00:45:54;;;;;;;3.03;2.30;;;;;;;23.32;51.70;101556.97;5016545;28;20037;-58
2021/08/11 00:48:25;;;;;;;3.53;2.35;;;;;;;23.31;50.91;101558.00;5016577;28;20026;-59
2021/08/11 00:50:51;;;;;;;5.50;2.65;;;;;;;23.31;51.88;101565.38;5015250;28;20454;-58
2021/08/11 00:53:17;;;;;;;5.03;2.47;;;;;;;23.29;51.88;101562.81;5015025;28;20026;-58
2021/08/11 00:55:42;;;;;;;3.75;2.97;;;;;;;23.29;51.29;101570.16;5015066;28;20466;-58
2021/08/11 00:58:10;;;;;;;5.15;2.63;;;;;;;23.29;51.89;101568.28;5016503;28;20053;-58
2021/08/11 01:00:41;;;;;;;1.85;1.65;;;;;;;23.28;51.02;101568.50;5016480;28;20022;-59
2021/08/11 01:03:10;;;;;;;3.60;1.38;;;;;;;23.25;50.85;101569.72;5014678;28;20399;-58
2021/08/11 01:05:36;;;;;;;3.00;1.65;;;;;;;23.23;50.88;101571.78;5016159;28;20033;-59
2021/08/11 01:08:01;;;;;;;4.60;1.80;;;;;;;23.20;50.95;101569.44;5016038;28;20033;-59
2021/08/11 01:10:27;;;;;;;5.53;2.60;;;;;;;23.15;51.74;101560.97;5014613;28;20483;-58
2021/08/11 01:12:53;;;;;;;3.13;2.28;;;;;;;23.15;50.82;101567.28;5014824;28;20028;-60
2021/08/11 01:15:18;;;;;;;2.58;1.75;;;;;;;23.14;51.13;101572.97;5014850;28;20053;-60
2021/08/11 01:17:44;;;;;;;4.85;2.22;;;;;;;23.13;51.02;101566.66;5016016;28;20033;-60
2021/08/11 01:20:10;;;;;;;6.18;2.97;;;;;;;23.12;51.07;101566.81;5015869;28;20091;-60
2021/08/11 01:22:42;;;;;;;6.97;3.28;;;;;;;23.11;51.06;101565.16;5015995;28;20025;-60
2021/08/11 01:25:08;;;;;;;7.53;2.75;;;;;;;23.11;52.04;101570.63;5014890;28;20033;-60
2021/08/11 01:28:16;;;;;;;3.17;2.45;;;;;;;23.09;51.73;101569.94;5015574;28;20088;-60
2021/08/11 01:30:50;;;;;;;2.80;2.22;;;;;;;23.05;51.59;101576.84;5014534;28;20101;-60
2021/08/11 01:33:53;;;;;;;4.43;2.67;;;;;;;23.03;51.87;101579.75;5013796;28;20079;-60
2021/08/11 01:36:33;;;;;;;5.15;2.13;;;;;;;22.99;50.87;101589.41;5015773;28;20037;-59
2021/08/11 01:39:04;;;;;;;2.03;1.45;;;;;;;22.96;51.05;101583.47;5015678;28;20433;-59
2021/08/11 01:41:34;;;;;;;1.52;1.10;;;;;;;22.90;51.54;101576.03;5014361;28;20351;-59
2021/08/11 01:44:00;;;;;;;3.47;1.20;;;;;;;22.89;50.90;101582.53;5014348;28;20029;-59
2021/08/11 01:46:26;;;;;;;16.05;2.25;;;;;;;22.86;51.91;101582.94;5014590;28;20034;-60
2021/08/11 01:48:52;;;;;;;2.90;2.05;;;;;;;22.82;51.49;101578.88;5014097;28;20534;-60
2021/08/11 01:51:18;;;;;;;4.82;1.65;;;;;;;22.79;51.33;101577.38;5014236;28;20126;-59
2021/08/11 01:53:43;;;;;;;9.13;1.88;;;;;;;22.75;51.34;101573.34;5013966;28;20112;-59
2021/08/11 01:56:09;;;;;;;6.57;2.40;;;;;;;22.74;51.16;101585.28;5015067;28;20105;-58
2021/08/11 01:58:35;;;;;;;4.75;2.63;;;;;;;22.74;51.73;101584.44;5013771;28;20079;-59
2021/08/11 02:01:06;;;;;;;5.15;2.20;;;;;;;22.72;50.78;101581.06;5014916;28;20541;-59
2021/08/11 02:03:32;;;;;;;17.95;3.35;;;;;;;22.68;51.46;101586.03;5014812;28;20061;-59
2021/08/11 02:05:57;;;;;;;5.20;2.20;;;;;;;22.69;51.26;101586.91;5014037;28;20053;-58
2021/08/11 02:08:24;;;;;;;6.47;1.90;;;;;;;22.66;51.83;101582.66;5013773;28;20101;-59
2021/08/11 02:10:52;;;;;;;2.05;1.35;;;;;;;22.64;51.33;101586.63;5013874;28;20026;-59
2021/08/11 02:13:18;;;;;;;2.05;1.05;;;;;;;22.58;51.45;101583.56;5015228;28;20037;-59
2021/08/11 02:15:48;;;;;;;1.48;1.20;;;;;;;22.54;51.07;101576.78;5013608;28;20036;-58
2021/08/11 02:18:13;;;;;;;2.85;0.90;;;;;;;22.54;51.17;101585.00;5014834;28;20110;-59
2021/08/11 02:20:39;;;;;;;3.00;1.58;;;;;;;22.50;51.75;101575.47;5014721;28;20439;-59
2021/08/11 02:23:04;;;;;;;3.38;1.77;;;;;;;22.48;50.66;101580.28;5014439;28;20022;-58
2021/08/11 02:25:31;;;;;;;3.15;1.65;;;;;;;22.46;51.75;101576.03;5014430;28;20026;-58
2021/08/11 02:28:06;;;;;;;13.68;2.95;;;;;;;22.44;51.69;101570.78;5013424;28;20045;-59
2021/08/11 02:30:47;;;;;;;11.23;2.50;;;;;;;22.42;51.63;101569.25;5015582;28;20108;-58
2021/08/11 02:33:26;;;;;;;6.82;2.25;;;;;;;22.39;51.81;101570.47;5013400;28;20028;-59
2021/08/11 02:35:56;;;;;;;3.20;1.83;;;;;;;22.37;51.08;101568.97;5014800;28;20018;-59
2021/08/11 02:38:27;;;;;;;4.90;2.00;;;;;;;22.34;52.05;101567.47;5013439;28;20022;-59
2021/08/11 02:41:08;;;;;;;2.00;1.50;;;;;;;22.33;51.28;101565.78;5013688;28;20025;-59
2021/08/11 02:43:36;;;;;;;2.33;1.60;;;;;;;22.31;51.43;101558.78;5012197;28;20429;-59
2021/08/11 02:46:06;;;;;;;3.50;1.63;;;;;;;22.27;50.99;101558.34;5014376;28;20160;-59
2021/08/11 02:48:31;;;;;;;7.38;2.30;;;;;;;22.26;51.32;101556.63;5013109;28;20033;-59
2021/08/11 02:50:58;;;;;;;2.88;1.95;;;;;;;22.21;51.93;101550.91;5013465;28;20021;-59
2021/08/11 02:53:25;;;;;;;2.65;1.40;;;;;;;22.22;50.72;101547.13;5014236;28;20025;-59
2021/08/11 02:55:51;;;;;;;3.20;1.88;;;;;;;22.20;51.57;101554.66;5012899;28;20570;-58
2021/08/11 02:58:17;;;;;;;4.78;1.40;;;;;;;22.20;51.00;101560.09;5013243;28;20053;-59
2021/08/11 03:00:43;;;;;;;3.08;1.52;;;;;;;22.19;51.78;101557.59;5012948;28;20026;-59
2021/08/11 03:03:08;;;;;;;3.03;2.05;;;;;;;22.16;51.32;101560.69;5014113;28;20034;-59
2021/08/11 03:05:34;;;;;;;2.20;1.85;;;;;;;22.15;50.87;101568.03;5013193;28;20029;-59
2021/08/11 03:08:00;;;;;;;5.28;2.42;;;;;;;22.15;51.23;101573.47;4996204;28;20030;-59
2021/08/11 03:10:25;;;;;;;4.93;2.08;;;;;;;22.16;51.11;101574.34;4996056;28;20021;-58
2021/08/11 03:12:51;;;;;;;2.92;2.42;;;;;;;22.14;52.05;101571.75;5014164;28;20124;-59
2021/08/11 03:15:17;;;;;;;4.22;1.50;;;;;;;22.12;51.10;101573.84;5013845;28;20041;-58
2021/08/11 03:17:44;;;;;;;3.45;1.80;;;;;;;22.11;51.44;101572.13;5013981;28;20088;-59
2021/08/11 03:20:10;;;;;;;3.50;2.30;;;;;;;22.09;51.88;101568.75;5013939;28;20116;-58
2021/08/11 03:22:36;;;;;;;2.45;1.70;;;;;;;22.05;51.32;101573.72;5013766;28;20029;-58
2021/08/11 03:25:01;;;;;;;2.58;1.85;;;;;;;22.04;51.45;101572.06;5013870;28;20028;-59
2021/08/11 03:27:26;;;;;;;2.08;1.35;;;;;;;22.04;52.13;101582.13;5013665;28;20137;-59
2021/08/11 03:29:52;;;;;;;2.42;1.63;;;;;;;22.03;51.73;101584.00;5013914;28;20100;-58
2021/08/11 03:32:17;;;;;;;3.75;2.30;;;;;;;22.00;51.31;101578.03;5012435;28;20025;-58
2021/08/11 03:34:42;;;;;;;4.57;1.45;;;;;;;22.01;51.45;101587.94;5013518;28;20033;-59
2021/08/11 03:37:08;;;;;;;5.55;1.90;;;;;;;22.01;51.65;101587.94;5013891;28;20029;-58
2021/08/11 03:39:33;;;;;;;4.97;2.53;;;;;;;21.97;51.14;101583.91;5013841;28;20026;-58
2021/08/11 03:41:59;;;;;;;2.47;1.73;;;;;;;21.95;51.13;101578.63;5013824;28;20076;-59
2021/08/11 03:44:24;;;;;;;2.90;1.58;;;;;;;21.96;51.77;101591.25;5013836;28;20029;-59
2021/08/11 03:46:49;;;;;;;3.22;1.65;;;;;;;21.96;51.11;101590.38;5013492;28;20166;-59
2021/08/11 03:49:15;;;;;;;2.63;1.40;;;;;;;21.91;51.77;101576.44;5012304;28;20546;-59
2021/08/11 03:51:40;;;;;;;2.20;1.67;;;;;;;21.95;51.38;101585.94;5013364;28;20033;-58
2021/08/11 03:54:06;;;;;;;3.42;1.83;;;;;;;21.96;51.47;101587.66;5013673;28;20050;-59
2021/08/11 03:56:31;;;;;;;3.70;2.15;;;;;;;21.97;52.04;101586.63;5016324;28;20022;-58
2021/08/11 03:58:57;;;;;;;2.50;2.10;;;;;;;21.98;51.19;101588.31;5018131;28;20018;-58
2021/08/11 04:01:22;;;;;;;3.58;1.92;;;;;;;21.99;51.25;101590.88;5017391;28;20033;-60
2021/08/11 04:03:47;;;;;;;2.83;1.90;;;;;;;21.99;51.11;101581.81;5017103;28;20044;-59
2021/08/11 04:06:13;;;;;;;4.38;2.45;;;;;;;22.05;51.68;101586.56;5017215;28;20052;-59
2021/08/11 04:08:38;;;;;;;9.07;2.63;;;;;;;22.09;52.21;101585.13;5017201;28;20026;-60
2021/08/11 04:11:04;;;;;;;2.75;2.45;;;;;;;22.13;52.25;101588.34;5016874;28;20112;-58
2021/08/11 04:13:29;;;;;;;5.35;2.50;;;;;;;22.16;52.15;101577.91;5017227;28;20114;-59
2021/08/11 04:15:54;;;;;;;3.90;2.65;;;;;;;22.19;51.39;101588.47;5017117;28;20057;-58
2021/08/11 04:18:20;;;;;;;4.45;2.47;;;;;;;22.22;51.75;101589.97;5017279;28;20381;-58
2021/08/11 04:20:45;;;;;;;5.72;2.47;;;;;;;22.23;52.20;101587.03;5017071;28;20036;-59
2021/08/11 04:23:11;;;;;;;2.85;2.33;;;;;;;22.27;52.35;101593.84;5016627;28;20093;-58
2021/08/11 04:25:39;;;;;;;3.75;1.83;;;;;;;22.30;51.91;101598.91;5016646;28;20041;-59
2021/08/11 04:28:04;;;;;;;3.47;1.83;;;;;;;22.31;52.13;101594.28;5015760;28;20348;-59
2021/08/11 04:30:30;;;;;;;3.90;2.55;;;;;;;22.35;52.15;101598.34;5015375;28;20037;-59
2021/08/11 04:32:55;;;;;;;3.17;2.03;;;;;;;22.39;51.90;101600.50;5016853;28;20041;-59
2021/08/11 04:35:21;;;;;;;3.53;2.50;;;;;;;22.41;52.56;101592.16;5016541;28;20022;-60
2021/08/11 04:37:46;;;;;;;8.75;2.53;;;;;;;22.46;51.93;101601.47;5016971;28;20026;-58
2021/08/11 04:40:12;;;;;;;5.75;2.63;;;;;;;22.49;52.09;101603.81;5016473;28;20034;-59
2021/08/11 04:42:38;;;;;;;4.43;2.22;;;;;;;22.56;51.83;101609.38;5016505;28;20044;-58
2021/08/11 04:45:04;;;;;;;4.32;2.70;;;;;;;22.62;51.74;101604.00;5016604;28;20084;-59
2021/08/11 04:47:30;;;;;;;9.35;3.10;;;;;;;22.68;52.81;101612.50;5016412;28;20434;-59
2021/08/11 04:49:55;;;;;;;4.30;2.78;;;;;;;22.73;51.72;101607.31;5016563;28;20109;-59
2021/08/11 04:52:20;;;;;;;5.63;3.05;;;;;;;22.75;51.89;101610.72;5016501;28;20076;-59
2021/08/11 04:54:46;;;;;;;7.50;3.28;;;;;;;22.79;51.81;101614.75;5016219;28;20427;-59
2021/08/11 04:57:11;;;;;;;4.18;3.00;;;;;;;22.82;52.54;101615.25;5016152;28;20030;-59
2021/08/11 04:59:37;;;;;;;5.18;2.70;;;;;;;22.86;51.84;101615.72;5016604;28;20049;-59
2021/08/11 05:02:03;;;;;;;4.38;3.15;;;;;;;22.88;52.84;101613.63;5016046;28;20129;-59
2021/08/11 05:04:28;;;;;;;5.03;2.97;;;;;;;22.91;52.72;101618.72;5015919;28;20532;-59
2021/08/11 05:06:53;;;;;;;5.85;3.10;;;;;;;22.92;52.69;101612.22;5015444;28;20030;-59
2021/08/11 05:09:19;;;;;;;8.68;3.03;;;;;;;22.96;51.93;101608.91;5016382;28;20436;-59
2021/08/11 05:11:44;;;;;;;6.43;3.40;;;;;;;23.01;52.84;101619.25;5016155;28;20080;-58
2021/08/11 05:14:10;;;;;;;4.18;2.65;;;;;;;23.03;51.96;101614.47;5015102;28;20097;-59
2021/08/11 05:16:35;;;;;;;5.18;2.90;;;;;;;23.06;53.09;101614.91;5016514;28;20064;-59
2021/08/11 05:19:01;;;;;;;4.03;3.05;;;;;;;23.09;52.84;101610.94;5016652;28;20077;-59
2021/08/11 05:21:26;;;;;;;4.90;2.80;;;;;;;23.15;52.88;101604.72;5015946;28;20021;-60
2021/08/11 05:23:52;;;;;;;5.05;3.20;;;;;;;23.16;51.99;101611.91;5015506;28;20034;-59
2021/08/11 05:26:17;;;;;;;6.00;3.15;;;;;;;23.23;52.97;101610.06;5014324;28;20073;-59
2021/08/11 05:28:44;;;;;;;9.40;3.28;;;;;;;23.24;52.77;101614.50;5016112;28;20037;-59
2021/08/11 05:31:09;;;;;;;6.03;3.15;;;;;;;23.28;52.97;101610.38;5016095;28;20022;-59
2021/08/11 05:33:34;;;;;;;7.10;3.97;;;;;;;23.32;52.88;101619.00;5015957;28;20034;-59
2021/08/11 05:36:00;;;;;;;6.43;3.45;;;;;;;23.38;52.84;101624.59;5015399;28;20101;-59
2021/08/11 05:38:27;;;;;;;4.28;2.85;;;;;;;23.43;51.97;101624.84;5015726;28;20075;-59
2021/08/11 05:40:52;;;;;;;6.00;4.30;;;;;;;23.53;52.92;101630.88;4998490;28;20026;-59
2021/08/11 05:43:18;;;;;;;8.70;3.33;;;;;;;23.57;52.69;101634.91;5014229;28;20058;-59
2021/08/11 05:45:43;;;;;;;5.90;3.47;;;;;;;23.67;51.91;101634.59;5013807;28;20049;-59
2021/08/11 05:48:09;;;;;;;6.47;3.10;;;;;;;23.82;51.68;101629.03;5015347;28;20024;-59
2021/08/11 05:50:34;;;;;;;6.28;3.03;;;;;;;24.08;52.21;101638.34;5015204;28;20021;-59
2021/08/11 05:52:59;;;;;;;4.55;2.58;;;;;;;24.24;52.35;101635.34;5015130;28;20125;-59
2021/08/11 05:55:25;;;;;;;5.82;3.25;;;;;;;24.36;52.09;101651.22;5015075;28;20471;-59
2021/08/11 05:57:50;;;;;;;5.43;3.20;;;;;;;24.34;52.45;101641.31;5015209;28;20068;-59
2021/08/11 06:00:16;;;;;;;6.15;3.20;;;;;;;24.39;52.43;101642.63;5016560;28;20060;-59
2021/08/11 06:02:43;;;;;;;6.28;3.17;;;;;;;24.40;52.24;101645.13;5015183;28;20034;-59
2021/08/11 06:05:09;;;;;;;7.70;3.53;;;;;;;24.41;52.29;101646.84;5015267;28;20402;-59
2021/08/11 06:07:34;;;;;;;6.47;3.33;;;;;;;24.42;52.09;101648.56;5015196;28;20028;-59
2021/08/11 06:09:59;;;;;;;4.38;2.75;;;;;;;24.48;52.16;101655.97;5014741;28;20025;-58
2021/08/11 06:12:25;;;;;;;9.20;3.58;;;;;;;24.61;52.01;101656.06;5013508;28;20026;-58
2021/08/11 06:14:50;;;;;;;5.57;3.40;;;;;;;24.67;51.70;101658.00;5014904;28;20085;-59
2021/08/11 06:17:16;;;;;;;12.88;3.58;;;;;;;24.82;51.94;101656.00;5014872;28;20025;-58
2021/08/11 06:19:42;;;;;;;5.75;3.58;;;;;;;24.97;51.50;101649.53;5014713;28;20116;-59
2021/08/11 06:22:08;;;;;;;7.90;3.40;;;;;;;24.98;51.78;101653.97;5014769;28;20604;-59
2021/08/11 06:24:33;;;;;;;9.15;4.78;;;;;;;25.06;51.82;101653.81;5014965;28;20033;-59
2021/08/11 06:26:59;;;;;;;5.30;3.75;;;;;;;25.17;51.46;101648.59;5014099;28;20050;-59
2021/08/11 06:29:24;;;;;;;5.72;3.75;;;;;;;25.40;51.34;101651.00;5014703;28;20038;-59
2021/08/11 06:31:50;;;;;;;10.57;4.20;;;;;;;25.47;51.46;101654.63;5014266;28;20109;-58
2021/08/11 06:34:17;;;;;;;8.60;3.92;;;;;;;25.48;51.44;101650.00;5013960;28;20022;-58
2021/08/11 06:36:43;;;;;;;5.32;3.50;;;;;;;25.49;51.56;101655.25;4997162;28;20120;-59
2021/08/11 06:39:08;;;;;;;9.05;4.18;;;;;;;25.56;51.38;101653.41;5013440;28;20068;-59
2021/08/11 06:41:33;;;;;;;8.23;4.07;;;;;;;25.83;50.69;101659.78;5014339;28;20032;-59
2021/08/11 06:43:59;;;;;;;7.35;3.95;;;;;;;26.09;50.73;101653.47;5014521;28;20108;-59
2021/08/11 06:46:24;;;;;;;9.07;4.35;;;;;;;26.28;50.25;101659.00;5014242;28;20088;-59
2021/08/11 06:48:49;;;;;;;7.70;4.07;;;;;;;26.44;50.53;101672.31;5014596;28;20040;-59
2021/08/11 06:51:15;;;;;;;8.73;3.75;;;;;;;26.57;50.22;101668.72;5013193;28;20108;-59
2021/08/11 06:53:40;;;;;;;8.32;4.03;;;;;;;26.66;50.71;101674.84;5014284;28;20050;-59
2021/08/11 06:56:06;;;;;;;8.15;4.10;;;;;;;26.79;49.83;101677.59;5014257;28;20109;-59
2021/08/11 06:58:31;;;;;;;15.38;4.20;;;;;;;26.96;49.61;101684.31;5012759;28;20029;-59
2021/08/11 07:00:59;;;;;;;9.48;4.93;;;;;;;27.11;49.73;101688.50;5014422;28;20017;-60
2021/08/11 07:03:25;;;;;;;9.27;4.63;;;;;;;27.10;49.42;101692.31;5014155;28;20076;-59
2021/08/11 07:05:50;;;;;;;7.07;4.30;;;;;;;27.04;49.87;101693.19;5014022;28;20417;-59
2021/08/11 07:08:15;;;;;;;6.30;4.55;;;;;;;27.08;49.48;101688.91;5014079;28;20022;-60
2021/08/11 07:10:41;;;;;;;7.20;4.30;;;;;;;27.09;49.49;101690.63;5013736;28;20030;-60
2021/08/11 07:13:06;;;;;;;7.38;4.65;;;;;;;27.07;49.90;101698.25;5012901;28;20032;-59
2021/08/11 07:15:32;;;;;;;7.15;4.05;;;;;;;27.08;49.95;101699.94;5014038;28;20017;-58
2021/08/11 07:17:58;;;;;;;10.13;5.18;;;;;;;27.11;49.34;101694.00;5013777;28;20021;-59
2021/08/11 07:20:25;;;;;;;8.43;5.05;;;;;;;27.06;49.98;101704.81;5013600;28;20481;-59
2021/08/11 07:22:50;;;;;;;7.97;4.72;;;;;;;26.92;49.97;101694.03;5013950;28;20462;-59
2021/08/11 07:25:16;;;;;;;10.55;5.95;;;;;;;26.83;49.76;101695.34;5013572;28;20121;-60
2021/08/11 07:27:42;;;;;;;11.75;5.38;;;;;;;26.79;50.46;101700.44;5013682;28;20053;-59
2021/08/11 07:30:08;;;;;;;10.80;5.55;;;;;;;26.73;50.33;101706.75;5015556;28;20026;-59
2021/08/11 07:32:34;;;;;;;14.65;6.30;;;;;;;26.59;50.39;101705.06;5019323;28;20466;-59
2021/08/11 07:34:59;;;;;;;11.23;6.18;;;;;;;26.52;50.33;101712.50;5020460;28;20017;-59
2021/08/11 07:37:24;;;;;;;14.00;6.07;;;;;;;26.56;50.36;101716.50;5020386;28;20497;-59
2021/08/11 07:39:53;;;;;;;11.57;5.72;;;;;;;26.63;50.24;101723.66;5020064;28;20107;-58
2021/08/11 07:42:19;;;;;;;9.88;5.95;;;;;;;26.65;49.46;101712.47;5020871;28;20168;-58
2021/08/11 07:44:44;;;;;;;8.50;6.35;;;;;;;26.60;50.09;101728.78;5019079;28;20538;-59
2021/08/11 07:47:09;;;;;;;11.95;6.53;;;;;;;26.66;49.46;101722.44;5020223;28;20025;-59
2021/08/11 07:49:35;;;;;;;14.60;7.13;;;;;;;26.61;50.04;101719.44;5018868;28;20036;-60
2021/08/11 07:52:00;;;;;;;13.48;7.82;;;;;;;26.66;50.34;101724.31;5019892;28;20034;-59
2021/08/11 07:54:25;;;;;;;13.23;6.57;;;;;;;26.65;50.11;101717.97;5019919;28;20350;-59
2021/08/11 07:56:51;;;;;;;13.05;6.80;;;;;;;26.63;49.26;101717.34;5020183;28;20072;-59
2021/08/11 07:59:16;;;;;;;11.35;6.88;;;;;;;26.55;50.26;101714.78;5019213;28;20022;-59
2021/08/11 08:01:41;;;;;;;11.50;6.70;;;;;;;26.57;50.39;101718.19;5020283;28;20034;-59
2021/08/11 08:04:07;;;;;;;12.55;6.30;;;;;;;26.57;49.75;101710.78;5019720;28;20025;-58
2021/08/11 08:06:32;;;;;;;9.48;6.85;;;;;;;26.48;50.21;101717.56;5020168;28;20030;-59
2021/08/11 08:08:57;;;;;;;11.32;6.60;;;;;;;26.55;50.06;101715.63;5018532;28;20022;-59
2021/08/11 08:11:23;;;;;;;10.60;6.53;;;;;;;26.54;49.96;101718.63;5020009;28;20057;-59
2021/08/11 08:13:48;;;;;;;11.52;7.40;;;;;;;26.45;50.34;101720.72;5019745;28;20068;-59
2021/08/11 08:16:15;;;;;;;11.68;6.40;;;;;;;26.34;50.35;101698.53;5020010;28;20025;-60
2021/08/11 08:18:41;;;;;;;11.15;6.80;;;;;;;26.40;50.02;101712.28;5020149;28;20458;-60
2021/08/11 08:21:06;;;;;;;11.13;6.57;;;;;;;26.45;49.77;101706.13;5020045;28;20061;-59
2021/08/11 08:23:32;;;;;;;15.63;8.10;;;;;;;26.42;50.27;101695.56;5020375;28;20026;-60
2021/08/11 08:25:58;;;;;;;13.15;7.60;;;;;;;26.43;50.23;101700.00;5018135;28;20132;-60
2021/08/11 08:28:23;;;;;;;13.50;7.50;;;;;;;26.43;50.04;101708.25;5019547;28;20402;-59
2021/08/11 08:30:49;;;;;;;18.65;8.65;;;;;;;26.52;49.84;101716.06;5018424;28;20036;-60
2021/08/11 08:33:15;;;;;;;10.80;6.35;;;;;;;26.59;50.06;101705.06;5019589;28;20022;-60
2021/08/11 08:35:40;;;;;;;11.57;6.80;;;;;;;26.58;49.95;101712.47;5019146;28;20093;-59
2021/08/11 08:38:06;;;;;;;14.00;7.82;;;;;;;26.59;49.94;101710.56;5018203;28;20029;-59
2021/08/11 08:40:33;;;;;;;15.32;7.18;;;;;;;26.56;50.05;101702.75;5020059;28;20060;-60
2021/08/11 08:43:00;;;;;;;16.13;8.73;;;;;;;26.65;50.17;101712.47;5016222;28;20026;-60
2021/08/11 08:45:26;;;;;;;11.82;6.68;;;;;;;26.75;49.98;101712.88;5016757;28;20022;-61
2021/08/11 08:47:51;;;;;;;9.60;6.70;;;;;;;26.87;49.93;101724.97;5016631;28;20068;-61
2021/08/11 08:50:20;;;;;;;11.93;7.60;;;;;;;26.93;49.62;101718.59;5016559;28;20030;-59
2021/08/11 08:52:47;;;;;;;16.65;7.60;;;;;;;26.85;49.46;101727.09;5016798;28;20022;-60
2021/08/11 08:55:12;;;;;;;11.77;7.47;;;;;;;26.76;49.76;101722.81;5016473;28;20367;-60
2021/08/11 08:57:38;;;;;;;12.13;7.15;;;;;;;26.80;49.78;101732.34;5014989;28;20032;-60
2021/08/11 09:00:08;;;;;;;12.55;7.53;;;;;;;26.81;50.19;101727.69;5016333;28;20049;-60
2021/08/11 09:02:38;;;;;;;12.63;7.43;;;;;;;26.83;50.10;101722.84;5017019;28;20469;-60
2021/08/11 09:05:09;;;;;;;11.73;7.78;;;;;;;26.88;49.67;101725.81;5016248;28;20026;-60
2021/08/11 09:07:35;;;;;;;12.45;7.40;;;;;;;26.87;50.06;101724.97;5016104;28;20026;-60
2021/08/11 09:10:23;;;;;;;11.90;7.13;;;;;;;26.92;49.26;101725.16;5015928;28;20037;-60
2021/08/11 09:12:49;;;;;;;9.73;6.75;;;;;;;26.96;49.83;101714.56;5015417;28;20033;-60
2021/08/11 09:15:28;;;;;;;11.10;7.47;;;;;;;27.13;49.64;101713.06;5015904;28;20018;-60
2021/08/11 09:17:53;;;;;;;14.10;7.68;;;;;;;27.28;49.71;101723.78;5016193;28;20022;-60
2021/08/11 09:20:24;;;;;;;12.32;7.40;;;;;;;27.45;49.44;101727.78;5015821;28;20528;-59
2021/08/11 09:22:55;;;;;;;14.40;8.07;;;;;;;27.57;49.14;101731.53;5015508;28;20030;-60
2021/08/11 09:25:21;;;;;;;11.77;6.90;;;;;;;27.73;49.35;101742.03;5015718;28;20083;-60
2021/08/11 09:27:48;;;;;;;11.85;7.25;;;;;;;27.87;48.33;101748.31;5014376;28;20053;-60
2021/08/11 09:30:16;;;;;;;14.95;7.85;;;;;;;28.02;49.09;101746.97;5014887;28;20026;-60
2021/08/11 09:32:50;;;;;;;11.18;7.35;;;;;;;28.19;47.90;101739.06;5016122;28;20030;-60
2021/08/11 09:35:34;;;;;;;11.02;7.50;;;;;;;28.51;47.89;101746.22;5015731;28;20029;-60
2021/08/11 09:38:01;;;;;;;13.48;7.18;;;;;;;28.54;47.91;101740.25;5015755;28;20060;-60
2021/08/11 09:40:32;;;;;;;10.68;7.13;;;;;;;28.55;48.41;101719.03;5014493;28;20100;-61
2021/08/11 09:43:09;;;;;;;11.25;7.15;;;;;;;28.48;47.56;101723.75;5015411;28;20498;-60
2021/08/11 09:45:46;;;;;;;11.68;6.63;;;;;;;28.43;48.67;101738.22;5015439;28;20379;-60
2021/08/11 09:48:12;;;;;;;12.70;6.80;;;;;;;28.38;48.11;101731.69;5015381;28;20025;-60
2021/08/11 09:50:47;;;;;;;13.20;7.68;;;;;;;28.47;47.41;101738.63;5015629;28;20034;-60
2021/08/11 09:53:34;;;;;;;9.93;6.47;;;;;;;28.55;47.41;101735.59;5014843;28;20030;-60
2021/08/11 09:56:09;;;;;;;12.55;6.97;;;;;;;28.71;47.73;101724.84;5015418;28;20109;-59
2021/08/11 09:58:40;;;;;;;13.25;6.80;;;;;;;28.86;46.74;101733.63;5015324;28;20049;-60
2021/08/11 10:01:13;;;;;;;11.00;6.53;;;;;;;29.02;47.05;101728.59;5015147;28;20021;-61
2021/08/11 10:04:06;;;;;;;7.68;5.70;;;;;;;29.22;47.10;101726.47;5015064;28;20040;-60
2021/08/11 10:06:36;;;;;;;9.55;5.95;;;;;;;29.66;46.33;101728.03;5014994;28;20113;-60
2021/08/11 10:09:18;;;;;;;9.65;6.55;;;;;;;29.80;46.04;101733.19;5014761;28;20026;-60
2021/08/11 10:11:51;;;;;;;12.43;6.13;;;;;;;30.28;45.07;101721.22;5015201;28;20071;-60
2021/08/11 10:14:22;;;;;;;8.55;5.07;;;;;;;31.06;44.66;101724.56;5015243;28;20025;-59
2021/08/11 10:16:48;;;;;;;9.45;5.88;;;;;;;31.38;44.55;101730.53;5015004;28;20387;-61
2021/08/11 10:19:14;;;;;;;9.75;5.80;;;;;;;31.93;43.37;101730.84;5013676;28;20029;-59
2021/08/11 10:21:46;;;;;;;7.97;5.43;;;;;;;32.20;43.04;101734.69;5014649;28;20541;-60
2021/08/11 10:24:12;;;;;;;8.02;4.97;;;;;;;32.39;43.51;101729.75;5014572;28;20076;-60
2021/08/11 10:26:37;;;;;;;9.50;5.32;;;;;;;32.56;42.69;101731.47;5013222;28;20062;-60
2021/08/11 10:29:05;;;;;;;8.05;5.53;;;;;;;32.41;43.54;101727.59;5014617;28;20117;-60
2021/08/11 10:31:31;;;;;;;7.90;5.28;;;;;;;32.48;43.33;101734.63;5014656;28;20025;-61
2021/08/11 10:34:00;;;;;;;13.65;5.15;;;;;;;32.50;42.51;101732.44;5014350;28;20036;-59
2021/08/11 10:36:25;;;;;;;8.32;5.38;;;;;;;32.52;42.72;101738.59;5014287;28;20101;-60
2021/08/11 10:38:51;;;;;;;9.23;5.78;;;;;;;32.57;42.02;101727.59;5013653;28;20109;-60
2021/08/11 10:41:16;;;;;;;8.50;4.90;;;;;;;32.65;41.93;101727.19;5013227;28;20080;-59
2021/08/11 10:43:43;;;;;;;6.07;4.43;;;;;;;32.69;41.86;101731.13;5014669;28;20133;-59
2021/08/11 10:46:14;;;;;;;7.68;5.15;;;;;;;32.70;41.60;101737.50;5013702;28;20104;-61
2021/08/11 10:48:39;;;;;;;7.80;4.50;;;;;;;32.73;42.35;101737.84;5014515;28;20042;-59
2021/08/11 10:51:05;;;;;;;6.88;4.90;;;;;;;32.94;42.06;101736.25;5013340;28;20459;-60
2021/08/11 10:53:30;;;;;;;6.20;4.63;;;;;;;33.72;39.87;101733.16;5014417;28;20025;-60
2021/08/11 10:55:57;;;;;;;8.38;5.00;;;;;;;33.96;39.45;101728.97;5012893;28;20024;-59
2021/08/11 10:58:42;;;;;;;6.30;3.88;;;;;;;34.38;39.58;101731.06;5014369;28;20014;-60
2021/08/11 11:01:33;;;;;;;4.88;3.78;;;;;;;34.96;39.28;101732.91;5014075;28;20029;-60
2021/08/11 11:04:00;;;;;;;8.50;4.10;;;;;;;35.56;38.15;101736.09;5014239;28;20040;-60
2021/08/11 11:06:50;;;;;;;4.90;3.38;;;;;;;35.75;37.49;101733.63;5013826;28;20034;-58
2021/08/11 11:09:22;;;;;;;6.60;3.60;;;;;;;36.10;37.10;101730.94;5014242;28;20049;-58
2021/08/11 11:11:48;;;;;;;5.40;3.53;;;;;;;36.19;37.09;101726.50;5013056;28;20026;-59
2021/08/11 11:14:52;;;;;;;4.90;3.70;;;;;;;36.05;36.81;101733.72;5014003;28;20025;-58
2021/08/11 11:17:22;;;;;;;4.82;3.67;;;;;;;36.43;36.91;101723.16;5013891;28;20041;-59
2021/08/11 11:20:03;;;;;;;5.20;3.58;;;;;;;36.56;35.75;101729.03;5013729;28;20036;-57
2021/08/11 11:22:51;;;;;;;2.80;2.55;;;;;;;37.22;34.78;101721.38;5014153;28;20033;-58
2021/08/11 11:25:18;;;;;;;4.78;3.53;;;;;;;37.89;34.89;101708.78;5012875;28;20472;-58
2021/08/11 11:27:44;;;;;;;15.25;3.22;;;;;;;38.44;34.00;101719.59;5012691;28;20498;-57